Time;durP1;ratioP1;P1;durP2;ratioP2;P2;SDS_P1;SDS_P2;PMS_P1;PMS_P2;Temp;Humidity;BMP_temperature;BMP_pressure;BME280_temperature;BME280_humidity;BME280_pressure;Samples;Min_cycle;Max_cycle;Signal;HPM_P1;HPM_P2
2023/06/07 00:01:43;;;;;;;11.87;6.43;;;;;;;;;;5032342;28;20226;-67
2023/06/07 00:04:13;;;;;;;11.07;5.90;;;;;;;;;;5031908;28;20270;-67
2023/06/07 00:06:40;;;;;;;16.53;6.50;;;;;;;;;;5010020;28;20200;-67
2023/06/07 00:09:24;;;;;;;11.67;5.83;;;;;;;;;;5012432;28;20180;-67
2023/06/07 00:11:51;;;;;;;11.30;6.30;;;;;;;;;;5012222;28;20184;-66
2023/06/07 00:14:18;;;;;;;12.27;5.90;;;;;;;;;;5021283;28;20225;-67
2023/06/07 00:16:44;;;;;;;10.90;5.80;;;;;;;;;;5032051;28;20281;-67
2023/06/07 00:19:11;;;;;;;10.07;6.03;;;;;;;;;;5018921;28;20220;-67
2023/06/07 00:21:38;;;;;;;11.17;6.20;;;;;;;;;;5011870;28;20184;-67
2023/06/07 00:24:05;;;;;;;9.00;5.47;;;;;;;;;;4997679;28;20192;-67
2023/06/07 00:26:32;;;;;;;8.07;5.80;;;;;;;;;;5014376;28;20188;-66
2023/06/07 00:29:17;;;;;;;10.67;5.80;;;;;;;;;;5030454;28;20187;-67
2023/06/07 00:31:43;;;;;;;10.90;6.00;;;;;;;;;;5013136;28;20314;-67
2023/06/07 00:34:29;;;;;;;10.97;5.67;;;;;;;;;;5031243;28;20218;-67
2023/06/07 00:36:56;;;;;;;10.50;5.80;;;;;;;;;;5012898;28;20224;-67
2023/06/07 00:39:24;;;;;;;13.70;6.40;;;;;;;;;;5009926;28;20559;-67
2023/06/07 00:41:54;;;;;;;11.23;6.30;;;;;;;;;;5009887;28;20594;-67
2023/06/07 00:44:21;;;;;;;8.83;5.43;;;;;;;;;;4993591;28;20192;-67
2023/06/07 00:46:48;;;;;;;11.97;6.10;;;;;;;;;;5019331;28;20659;-66
2023/06/07 00:49:16;;;;;;;8.17;5.30;;;;;;;;;;5012393;28;20289;-66
2023/06/07 00:51:43;;;;;;;9.77;5.90;;;;;;;;;;5008629;28;20299;-67
2023/06/07 00:54:10;;;;;;;12.40;5.40;;;;;;;;;;4999606;28;20247;-66
2023/06/07 00:56:37;;;;;;;10.73;5.30;;;;;;;;;;5012797;28;20195;-67
2023/06/07 00:59:03;;;;;;;9.10;5.63;;;;;;;;;;5011807;28;20215;-66
2023/06/07 01:01:33;;;;;;;10.17;5.47;;;;;;;;;;5030001;28;20219;-66
2023/06/07 01:04:00;;;;;;;12.10;5.30;;;;;;;;;;5012464;28;20196;-67
2023/06/07 01:06:29;;;;;;;11.07;6.60;;;;;;;;;;5011208;28;20194;-67
2023/06/07 01:08:56;;;;;;;10.70;6.10;;;;;;;;;;5029581;28;20210;-67
2023/06/07 01:11:23;;;;;;;13.40;5.83;;;;;;;;;;5013373;28;20211;-67
2023/06/07 01:13:50;;;;;;;9.53;5.60;;;;;;;;;;5024831;28;20226;-66
2023/06/07 01:16:18;;;;;;;11.67;5.83;;;;;;;;;;5013310;28;20261;-67
2023/06/07 01:18:45;;;;;;;10.47;6.07;;;;;;;;;;5030944;28;20196;-67
2023/06/07 01:21:13;;;;;;;11.93;5.50;;;;;;;;;;5012971;28;20192;-67
2023/06/07 01:23:59;;;;;;;12.33;5.87;;;;;;;;;;5006893;28;20870;-67
2023/06/07 01:26:27;;;;;;;11.83;5.87;;;;;;;;;;5018596;28;20212;-67
2023/06/07 01:28:54;;;;;;;12.37;6.43;;;;;;;;;;5025556;28;20713;-66
2023/06/07 01:31:21;;;;;;;10.63;5.47;;;;;;;;;;5028968;28;20187;-67
2023/06/07 01:33:49;;;;;;;9.20;4.90;;;;;;;;;;5011073;28;20223;-67
2023/06/07 01:36:16;;;;;;;10.67;5.17;;;;;;;;;;5012734;28;20245;-67
2023/06/07 01:38:44;;;;;;;9.23;5.63;;;;;;;;;;5012654;28;20188;-67
2023/06/07 01:41:13;;;;;;;9.00;5.30;;;;;;;;;;5013190;28;20191;-66
2023/06/07 02:16:35;;;;;;;10.17;5.77;;;;;;;;;;5029973;28;20213;-66
2023/06/07 02:19:06;;;;;;;9.33;6.30;;;;;;;;;;4996593;28;20673;-67
2023/06/07 02:21:44;;;;;;;8.67;5.03;;;;;;;;;;5014605;28;20223;-67
2023/06/07 02:24:10;;;;;;;6.07;4.73;;;;;;;;;;5029848;28;20184;-67
2023/06/07 02:26:38;;;;;;;10.43;5.50;;;;;;;;;;5030044;28;20187;-67
2023/06/07 02:29:04;;;;;;;9.00;4.77;;;;;;;;;;5012132;28;20294;-67
2023/06/07 02:31:31;;;;;;;7.60;5.53;;;;;;;;;;5035347;28;20219;-67
2023/06/07 02:34:00;;;;;;;10.40;5.90;;;;;;;;;;5029715;28;20262;-67
2023/06/07 02:36:32;;;;;;;11.10;5.57;;;;;;;;;;5021896;28;20198;-67
2023/06/07 02:39:17;;;;;;;18.40;6.40;;;;;;;;;;5023002;28;20286;-67
2023/06/07 02:41:43;;;;;;;15.30;6.93;;;;;;;;;;5020032;28;20284;-68
2023/06/07 02:44:10;;;;;;;13.17;6.00;;;;;;;;;;5028043;28;20528;-67
2023/06/07 02:46:37;;;;;;;22.23;7.17;;;;;;;;;;5028790;28;20944;-67
2023/06/07 02:49:04;;;;;;;15.70;6.27;;;;;;;;;;5011694;28;20294;-69
2023/06/07 02:51:31;;;;;;;19.87;7.30;;;;;;;;;;4983879;28;20198;-68
2023/06/07 02:53:59;;;;;;;19.37;6.40;;;;;;;;;;5024391;28;20199;-68
2023/06/07 02:56:29;;;;;;;17.83;6.30;;;;;;;;;;5017332;28;20222;-68
2023/06/07 02:58:56;;;;;;;30.40;7.00;;;;;;;;;;5027402;28;20191;-67
2023/06/07 03:01:27;;;;;;;24.63;7.63;;;;;;;;;;5012035;28;20214;-66
2023/06/07 03:03:56;;;;;;;29.27;7.30;;;;;;;;;;5027913;28;20195;-67
2023/06/07 03:06:28;;;;;;;26.80;7.57;;;;;;;;;;5007985;28;20196;-66
2023/06/07 03:09:00;;;;;;;23.70;6.63;;;;;;;;;;5006976;28;20192;-67
2023/06/07 03:11:30;;;;;;;19.20;7.30;;;;;;;;;;5011126;28;20234;-68
2023/06/07 03:13:59;;;;;;;22.00;7.77;;;;;;;;;;5009221;28;20242;-68
2023/06/07 03:16:33;;;;;;;23.03;7.50;;;;;;;;;;5018528;28;20281;-67
2023/06/07 03:19:03;;;;;;;24.87;7.40;;;;;;;;;;5026343;28;20605;-68
2023/06/07 03:21:30;;;;;;;20.33;8.23;;;;;;;;;;5017387;28;20210;-67
2023/06/07 03:24:01;;;;;;;21.43;7.33;;;;;;;;;;5028705;28;20211;-67
2023/06/07 03:26:28;;;;;;;24.43;7.30;;;;;;;;;;5025592;28;20187;-68
2023/06/07 03:29:00;;;;;;;14.70;6.23;;;;;;;;;;4989096;28;20215;-68
2023/06/07 03:31:32;;;;;;;16.03;6.63;;;;;;;;;;5020022;28;20576;-68
2023/06/07 03:34:03;;;;;;;16.80;6.57;;;;;;;;;;5007863;28;20223;-68
2023/06/07 03:36:31;;;;;;;23.27;7.50;;;;;;;;;;5007644;28;20281;-66
2023/06/07 03:38:59;;;;;;;19.87;9.13;;;;;;;;;;5023183;28;20551;-68
2023/06/07 03:41:27;;;;;;;16.43;7.37;;;;;;;;;;4994811;28;20212;-68
2023/06/07 03:43:57;;;;;;;18.47;7.30;;;;;;;;;;4990532;28;20193;-68
2023/06/07 03:46:25;;;;;;;19.20;7.23;;;;;;;;;;5000883;28;20203;-68
2023/06/07 03:48:52;;;;;;;26.60;7.60;;;;;;;;;;5031094;28;20198;-67
2023/06/07 03:51:21;;;;;;;30.80;7.93;;;;;;;;;;5029832;28;20210;-67
2023/06/07 03:53:48;;;;;;;19.53;6.40;;;;;;;;;;5030153;28;20215;-65
2023/06/07 03:56:32;;;;;;;24.10;6.90;;;;;;;;;;5014670;28;20179;-68
2023/06/07 03:59:01;;;;;;;16.80;6.70;;;;;;;;;;5034888;28;20661;-67
2023/06/07 04:01:32;;;;;;;14.10;6.20;;;;;;;;;;5018268;28;20193;-68
2023/06/07 04:03:59;;;;;;;17.73;6.33;;;;;;;;;;5034350;28;20637;-70
2023/06/07 04:06:28;;;;;;;11.70;5.67;;;;;;;;;;5052042;28;20702;-68
2023/06/07 04:08:56;;;;;;;16.70;6.13;;;;;;;;;;5037978;28;20707;-67
2023/06/07 04:11:26;;;;;;;14.43;5.13;;;;;;;;;;5014387;28;20207;-66
2023/06/07 04:13:53;;;;;;;12.23;5.30;;;;;;;;;;5000928;28;20224;-66
2023/06/07 04:16:23;;;;;;;13.73;5.33;;;;;;;;;;5029180;28;20199;-67
2023/06/07 04:18:50;;;;;;;21.70;6.07;;;;;;;;;;5030825;28;20531;-67
2023/06/07 04:21:17;;;;;;;27.23;6.53;;;;;;;;;;5013213;28;21024;-67
2023/06/07 04:23:45;;;;;;;18.27;6.10;;;;;;;;;;5011985;28;20253;-67
2023/06/07 04:26:21;;;;;;;16.83;5.93;;;;;;;;;;5033570;28;20194;-68
2023/06/07 04:28:56;;;;;;;15.27;5.60;;;;;;;;;;5013518;28;20287;-67
2023/06/07 04:31:29;;;;;;;17.00;6.33;;;;;;;;;;5003636;28;20223;-66
2023/06/07 04:34:01;;;;;;;25.53;7.10;;;;;;;;;;5008167;28;20215;-69
2023/06/07 04:36:31;;;;;;;15.30;6.57;;;;;;;;;;4998570;28;20238;-68
2023/06/07 04:39:00;;;;;;;15.37;6.57;;;;;;;;;;5010155;28;20203;-69
2023/06/07 04:41:32;;;;;;;21.47;6.63;;;;;;;;;;5012508;28;20227;-69
2023/06/07 04:44:28;;;;;;;22.30;6.37;;;;;;;;;;5033160;28;20179;-68
2023/06/07 04:47:05;;;;;;;23.20;7.17;;;;;;;;;;5009405;28;20714;-68
2023/06/07 04:49:53;;;;;;;13.23;6.27;;;;;;;;;;5011611;28;20198;-69
2023/06/07 04:52:21;;;;;;;12.77;5.17;;;;;;;;;;5035532;28;20192;-69
2023/06/07 04:54:58;;;;;;;14.73;4.87;;;;;;;;;;5002446;28;20242;-69
2023/06/07 04:57:26;;;;;;;13.33;4.80;;;;;;;;;;4995593;28;20598;-69
2023/06/07 04:59:54;;;;;;;9.87;4.60;;;;;;;;;;5007642;28;20199;-69
2023/06/07 05:02:27;;;;;;;11.67;4.10;;;;;;;;;;5015253;28;20719;-68
2023/06/07 05:04:57;;;;;;;10.20;4.13;;;;;;;;;;5032707;28;20266;-69
2023/06/07 05:07:27;;;;;;;8.97;4.17;;;;;;;;;;5013065;28;20641;-67
2023/06/07 05:09:54;;;;;;;9.93;3.77;;;;;;;;;;5013250;28;20195;-68
2023/06/07 05:12:23;;;;;;;9.90;3.70;;;;;;;;;;5026761;28;20282;-67
2023/06/07 05:14:51;;;;;;;12.90;4.17;;;;;;;;;;5016755;28;20226;-68
2023/06/07 05:17:20;;;;;;;11.93;5.27;;;;;;;;;;5015273;28;20238;-67
2023/06/07 05:19:51;;;;;;;30.20;6.23;;;;;;;;;;4996585;28;20691;-67
2023/06/07 05:22:18;;;;;;;16.47;4.57;;;;;;;;;;5005971;28;20191;-67
2023/06/07 05:24:45;;;;;;;17.47;4.50;;;;;;;;;;5009748;28;20196;-67
2023/06/07 05:27:12;;;;;;;16.40;4.27;;;;;;;;;;5024388;28;20318;-68
2023/06/07 05:29:39;;;;;;;16.70;4.33;;;;;;;;;;5012775;28;20591;-68
2023/06/07 05:32:08;;;;;;;15.63;3.97;;;;;;;;;;5012650;28;20211;-67
2023/06/07 05:34:38;;;;;;;12.87;4.13;;;;;;;;;;5027724;28;20292;-67
2023/06/07 05:37:05;;;;;;;17.60;4.60;;;;;;;;;;5023051;28;20673;-67
2023/06/07 05:39:32;;;;;;;10.77;4.50;;;;;;;;;;5008212;28;20836;-69
2023/06/07 05:42:00;;;;;;;10.43;3.80;;;;;;;;;;5021739;28;20231;-68
2023/06/07 05:44:27;;;;;;;10.53;4.50;;;;;;;;;;5036671;28;20194;-67
2023/06/07 05:46:54;;;;;;;11.27;3.53;;;;;;;;;;5021751;28;20199;-67
2023/06/07 05:49:21;;;;;;;9.93;3.63;;;;;;;;;;5011797;28;20270;-67
2023/06/07 05:51:51;;;;;;;8.27;3.67;;;;;;;;;;5011216;28;20199;-68
2023/06/07 05:54:18;;;;;;;12.33;4.33;;;;;;;;;;5029623;28;20207;-67
2023/06/07 05:56:45;;;;;;;7.80;3.53;;;;;;;;;;5011934;28;20198;-67
2023/06/07 05:59:12;;;;;;;10.97;3.60;;;;;;;;;;5029672;28;20654;-68
2023/06/07 06:01:40;;;;;;;5.37;2.90;;;;;;;;;;5029490;28;20183;-67
2023/06/07 06:04:07;;;;;;;6.90;3.60;;;;;;;;;;5029418;28;20180;-67
2023/06/07 06:06:36;;;;;;;4.63;3.00;;;;;;;;;;5029454;28;20218;-68
2023/06/07 06:09:03;;;;;;;6.90;2.70;;;;;;;;;;5029156;28;20199;-67
2023/06/07 06:11:30;;;;;;;4.70;2.87;;;;;;;;;;5029047;28;20194;-68
2023/06/07 06:13:59;;;;;;;6.80;3.03;;;;;;;;;;5029400;28;20926;-68
2023/06/07 06:16:29;;;;;;;4.33;2.67;;;;;;;;;;5017392;28;20325;-66
2023/06/07 06:18:56;;;;;;;10.03;2.90;;;;;;;;;;5028863;28;20241;-67
2023/06/07 06:21:23;;;;;;;9.27;2.80;;;;;;;;;;5027785;28;20203;-67
2023/06/07 06:23:51;;;;;;;6.67;2.70;;;;;;;;;;5026322;28;20226;-67
2023/06/07 06:26:21;;;;;;;8.97;2.93;;;;;;;;;;5011129;28;20195;-67
2023/06/07 06:28:48;;;;;;;8.33;2.80;;;;;;;;;;5029891;28;20183;-68
2023/06/07 06:31:15;;;;;;;4.67;2.80;;;;;;;;;;5029551;28;20673;-67
2023/06/07 06:34:00;;;;;;;7.07;2.60;;;;;;;;;;5028912;28;20171;-67
2023/06/07 06:36:26;;;;;;;6.80;2.80;;;;;;;;;;5029001;28;20207;-69
2023/06/07 06:38:53;;;;;;;7.30;2.90;;;;;;;;;;5029604;28;20257;-67
2023/06/07 06:41:20;;;;;;;5.63;2.77;;;;;;;;;;5029536;28;20203;-66
2023/06/07 06:43:48;;;;;;;3.50;2.57;;;;;;;;;;5011509;28;20230;-66
2023/06/07 06:46:15;;;;;;;3.33;2.60;;;;;;;;;;5033751;28;20270;-67
2023/06/07 06:48:44;;;;;;;4.07;2.60;;;;;;;;;;5049337;28;20195;-66
2023/06/07 06:51:24;;;;;;;3.33;2.50;;;;;;;;;;5048962;28;20282;-67
2023/06/07 06:53:51;;;;;;;3.73;2.70;;;;;;;;;;5049273;28;20189;-67
2023/06/07 06:56:18;;;;;;;4.07;2.57;;;;;;;;;;5048697;28;20233;-67
2023/06/07 06:58:46;;;;;;;4.20;2.53;;;;;;;;;;5049576;28;20268;-67
2023/06/07 07:01:48;;;;;;;4.60;2.50;;;;;;;;;;5035192;28;20176;-68
2023/06/07 07:04:15;;;;;;;3.30;2.20;;;;;;;;;;5028058;28;20190;-68
2023/06/07 07:06:43;;;;;;;4.87;2.60;;;;;;;;;;5035855;28;20244;-67
2023/06/07 07:09:09;;;;;;;4.03;2.43;;;;;;;;;;5048123;28;20214;-66
2023/06/07 07:11:36;;;;;;;4.33;2.43;;;;;;;;;;5047966;28;20191;-67
2023/06/07 07:14:03;;;;;;;4.07;2.53;;;;;;;;;;5030749;28;20665;-67
2023/06/07 07:16:31;;;;;;;3.67;2.80;;;;;;;;;;5033890;28;20311;-67
2023/06/07 07:18:58;;;;;;;3.93;2.80;;;;;;;;;;5047923;28;20198;-67
2023/06/07 07:21:26;;;;;;;5.57;2.90;;;;;;;;;;5022268;28;20694;-68
2023/06/07 07:23:52;;;;;;;4.77;2.97;;;;;;;;;;5027788;28;20187;-68
2023/06/07 07:26:19;;;;;;;7.37;2.80;;;;;;;;;;4994435;28;20195;-69
2023/06/07 07:28:46;;;;;;;4.70;2.70;;;;;;;;;;5029119;28;20261;-68
2023/06/07 07:31:14;;;;;;;6.43;2.40;;;;;;;;;;5032311;28;20246;-68
2023/06/07 07:33:41;;;;;;;4.70;2.83;;;;;;;;;;5032129;28;20255;-68
2023/06/07 07:36:08;;;;;;;9.13;2.93;;;;;;;;;;5031808;28;20234;-67
2023/06/07 07:38:37;;;;;;;5.37;2.60;;;;;;;;;;5014624;28;20207;-68
2023/06/07 07:41:04;;;;;;;3.70;2.73;;;;;;;;;;5032131;28;20199;-67
2023/06/07 07:43:48;;;;;;;4.07;2.77;;;;;;;;;;5017412;28;20643;-67
2023/06/07 07:46:15;;;;;;;5.10;2.77;;;;;;;;;;5032042;28;20195;-67
2023/06/07 07:49:00;;;;;;;3.07;2.50;;;;;;;;;;5031880;28;20170;-67
2023/06/07 07:51:26;;;;;;;5.37;2.70;;;;;;;;;;5031745;28;20255;-67
2023/06/07 07:54:12;;;;;;;5.57;2.50;;;;;;;;;;5031950;28;20197;-67
2023/06/07 07:56:40;;;;;;;4.60;2.73;;;;;;;;;;5031428;28;20202;-67
2023/06/07 07:59:07;;;;;;;5.33;2.80;;;;;;;;;;5031655;28;20200;-67
2023/06/07 08:01:34;;;;;;;6.33;3.00;;;;;;;;;;5031706;28;20205;-68
2023/06/07 08:04:00;;;;;;;8.00;3.10;;;;;;;;;;5031697;28;20266;-67
2023/06/07 08:06:27;;;;;;;6.40;2.80;;;;;;;;;;5031565;28;20188;-67
2023/06/07 08:08:54;;;;;;;5.43;3.00;;;;;;;;;;5031798;28;20558;-68
2023/06/07 08:11:21;;;;;;;7.57;3.13;;;;;;;;;;5031600;28;20192;-67
2023/06/07 08:13:48;;;;;;;4.33;2.37;;;;;;;;;;5031926;28;20521;-67
2023/06/07 08:16:16;;;;;;;3.57;2.83;;;;;;;;;;5031636;28;20259;-68
2023/06/07 08:18:49;;;;;;;4.90;2.73;;;;;;;;;;5031502;28;20291;-67
2023/06/07 08:21:16;;;;;;;5.53;2.97;;;;;;;;;;5014964;28;20198;-68
2023/06/07 08:23:44;;;;;;;4.33;2.77;;;;;;;;;;4997659;28;20194;-68
2023/06/07 08:26:11;;;;;;;10.20;3.00;;;;;;;;;;5012093;28;20602;-67
2023/06/07 08:28:38;;;;;;;5.07;3.00;;;;;;;;;;5011400;28;20202;-67
2023/06/07 08:31:05;;;;;;;5.07;2.90;;;;;;;;;;5011574;28;20195;-67
2023/06/07 08:33:31;;;;;;;5.33;2.67;;;;;;;;;;5011510;28;20195;-67
2023/06/07 08:36:16;;;;;;;4.97;2.83;;;;;;;;;;5011275;28;20214;-66
2023/06/07 08:38:42;;;;;;;6.97;2.87;;;;;;;;;;5011261;28;20247;-67
2023/06/07 08:41:09;;;;;;;6.47;2.67;;;;;;;;;;5010982;28;20196;-68
2023/06/07 08:43:37;;;;;;;7.97;2.90;;;;;;;;;;4993739;28;20575;-67
2023/06/07 08:46:04;;;;;;;5.07;2.77;;;;;;;;;;5011383;28;20275;-67
2023/06/07 08:48:34;;;;;;;8.50;3.20;;;;;;;;;;5010942;28;20179;-67
2023/06/07 08:51:04;;;;;;;5.43;2.83;;;;;;;;;;5011255;28;20203;-67
2023/06/07 08:53:37;;;;;;;3.83;2.70;;;;;;;;;;5010966;28;20196;-68
2023/06/07 08:56:04;;;;;;;5.20;3.00;;;;;;;;;;4993757;28;20216;-68
2023/06/07 08:58:31;;;;;;;5.80;2.83;;;;;;;;;;4977689;28;20261;-68
2023/06/07 09:00:57;;;;;;;7.07;2.70;;;;;;;;;;5010944;28;20985;-68
2023/06/07 09:03:25;;;;;;;6.07;3.20;;;;;;;;;;5011008;28;20207;-68
2023/06/07 09:05:54;;;;;;;6.97;3.00;;;;;;;;;;4993716;28;20205;-68
2023/06/07 09:08:21;;;;;;;6.10;2.60;;;;;;;;;;5010896;28;20192;-68
2023/06/07 09:10:48;;;;;;;4.70;2.90;;;;;;;;;;5011120;28;20203;-68
2023/06/07 09:13:20;;;;;;;4.83;2.87;;;;;;;;;;5010951;28;20245;-67
2023/06/07 09:15:49;;;;;;;3.80;2.60;;;;;;;;;;5010502;28;20313;-68
2023/06/07 09:18:16;;;;;;;4.63;2.90;;;;;;;;;;4992891;28;20278;-68
2023/06/07 09:20:43;;;;;;;5.07;2.70;;;;;;;;;;5010574;28;20186;-68
2023/06/07 09:23:13;;;;;;;4.37;3.10;;;;;;;;;;5010563;28;20226;-68
2023/06/07 09:25:43;;;;;;;3.30;2.40;;;;;;;;;;5009179;28;20190;-68
2023/06/07 09:28:10;;;;;;;4.67;2.97;;;;;;;;;;5030128;28;20193;-68
2023/06/07 09:30:56;;;;;;;4.73;3.00;;;;;;;;;;5030278;28;20206;-68
2023/06/07 09:33:28;;;;;;;5.30;2.80;;;;;;;;;;5029858;28;20301;-68
2023/06/07 09:36:05;;;;;;;4.43;2.77;;;;;;;;;;5029854;28;20519;-68
2023/06/07 09:38:33;;;;;;;5.83;2.83;;;;;;;;;;5012521;28;20213;-68
2023/06/07 09:41:00;;;;;;;4.37;2.60;;;;;;;;;;5030002;28;20198;-68
2023/06/07 09:43:49;;;;;;;3.83;2.83;;;;;;;;;;5012211;28;20226;-68
2023/06/07 09:46:17;;;;;;;3.60;2.70;;;;;;;;;;5029996;28;20197;-67
2023/06/07 09:48:46;;;;;;;6.10;2.80;;;;;;;;;;5029608;28;20195;-68
2023/06/07 09:51:14;;;;;;;3.57;2.67;;;;;;;;;;5011780;28;20540;-67
2023/06/07 09:54:05;;;;;;;4.47;2.90;;;;;;;;;;5014714;28;20175;-67
2023/06/07 09:56:32;;;;;;;6.77;2.60;;;;;;;;;;5029755;28;20221;-68
2023/06/07 09:59:16;;;;;;;4.30;2.50;;;;;;;;;;5029713;28;20165;-67
2023/06/07 10:01:45;;;;;;;6.67;2.73;;;;;;;;;;5029926;28;20190;-67
2023/06/07 10:04:13;;;;;;;3.60;2.83;;;;;;;;;;5012500;28;20599;-67
2023/06/07 10:06:41;;;;;;;3.77;2.63;;;;;;;;;;5029417;28;20589;-67
2023/06/07 10:09:08;;;;;;;4.70;2.67;;;;;;;;;;5029696;28;20691;-67
2023/06/07 10:11:36;;;;;;;5.80;2.77;;;;;;;;;;5029648;28;20179;-67
2023/06/07 10:14:06;;;;;;;4.57;2.67;;;;;;;;;;5029393;28;20224;-67
2023/06/07 10:16:34;;;;;;;4.33;2.20;;;;;;;;;;5012063;28;20661;-67
2023/06/07 10:19:21;;;;;;;5.50;3.03;;;;;;;;;;5029238;28;20178;-67
2023/06/07 10:21:49;;;;;;;3.50;2.30;;;;;;;;;;5011731;28;20520;-67
2023/06/07 10:24:17;;;;;;;3.53;2.30;;;;;;;;;;5007514;28;20188;-67
2023/06/07 10:26:52;;;;;;;2.57;2.23;;;;;;;;;;4992290;28;20200;-67
2023/06/07 10:29:28;;;;;;;3.67;2.33;;;;;;;;;;4991890;28;20194;-67
2023/06/07 10:32:15;;;;;;;3.87;2.60;;;;;;;;;;4992244;28;20680;-67
2023/06/07 10:34:43;;;;;;;4.23;2.40;;;;;;;;;;5009049;28;20200;-67
2023/06/07 10:37:10;;;;;;;5.87;2.67;;;;;;;;;;5009227;28;20215;-67
2023/06/07 10:39:38;;;;;;;5.20;2.80;;;;;;;;;;4991784;28;20201;-67
2023/06/07 10:42:05;;;;;;;3.43;2.30;;;;;;;;;;5009249;28;20192;-67
2023/06/07 10:44:32;;;;;;;5.90;2.30;;;;;;;;;;5009055;28;20276;-67
2023/06/07 10:47:17;;;;;;;4.53;2.50;;;;;;;;;;4991610;28;20187;-67
2023/06/07 10:50:02;;;;;;;5.20;2.60;;;;;;;;;;5008553;28;20193;-67
2023/06/07 10:52:29;;;;;;;3.43;2.40;;;;;;;;;;5009166;28;20190;-68
2023/06/07 10:55:23;;;;;;;4.60;2.60;;;;;;;;;;4994118;28;20343;-67
2023/06/07 10:57:49;;;;;;;4.10;2.83;;;;;;;;;;5009197;28;20206;-67
2023/06/07 11:00:24;;;;;;;2.57;2.37;;;;;;;;;;5009161;28;20302;-67
2023/06/07 11:03:12;;;;;;;2.77;2.20;;;;;;;;;;4991151;28;20198;-67
2023/06/07 11:05:52;;;;;;;3.77;2.60;;;;;;;;;;4988305;28;20234;-67
2023/06/07 11:08:23;;;;;;;3.30;2.60;;;;;;;;;;5008511;28;20204;-68
2023/06/07 11:10:50;;;;;;;4.53;2.63;;;;;;;;;;4992005;28;20201;-67
2023/06/07 11:13:16;;;;;;;3.40;2.43;;;;;;;;;;5008889;28;20533;-68
2023/06/07 11:15:45;;;;;;;4.20;2.20;;;;;;;;;;4991393;28;20277;-67
2023/06/07 11:18:12;;;;;;;4.53;2.50;;;;;;;;;;5024685;28;20240;-67
2023/06/07 11:20:45;;;;;;;2.97;2.47;;;;;;;;;;5028214;28;20192;-67
2023/06/07 11:23:21;;;;;;;5.83;2.60;;;;;;;;;;5010784;28;20229;-67
2023/06/07 11:25:52;;;;;;;3.13;2.40;;;;;;;;;;5028156;28;20191;-67
2023/06/07 11:28:22;;;;;;;3.10;2.77;;;;;;;;;;5028461;28;20668;-68
2023/06/07 11:30:49;;;;;;;3.83;2.40;;;;;;;;;;5010742;28;20201;-67
2023/06/07 11:33:16;;;;;;;9.00;2.60;;;;;;;;;;5028481;28;20183;-67
2023/06/07 11:35:43;;;;;;;2.67;2.40;;;;;;;;;;5010614;28;20235;-67
2023/06/07 11:38:11;;;;;;;5.83;2.80;;;;;;;;;;5028201;28;20210;-67
2023/06/07 11:40:37;;;;;;;3.53;2.30;;;;;;;;;;5028524;28;20219;-67
2023/06/07 11:43:07;;;;;;;16.70;3.90;;;;;;;;;;5010339;28;20709;-67
2023/06/07 11:45:35;;;;;;;6.50;2.57;;;;;;;;;;5027642;28;20185;-67
2023/06/07 11:48:02;;;;;;;3.43;2.40;;;;;;;;;;5028364;28;20224;-67
2023/06/07 11:50:30;;;;;;;3.00;2.30;;;;;;;;;;5027963;28;20184;-67
2023/06/07 11:52:57;;;;;;;6.30;2.77;;;;;;;;;;5028318;28;20211;-67
2023/06/07 11:55:23;;;;;;;3.27;2.23;;;;;;;;;;5028474;28;20534;-68
2023/06/07 11:58:08;;;;;;;3.30;2.20;;;;;;;;;;5010649;28;20187;-67
2023/06/07 12:00:38;;;;;;;3.40;2.30;;;;;;;;;;5010711;28;20199;-67
2023/06/07 12:03:22;;;;;;;4.50;2.43;;;;;;;;;;5013229;28;20258;-68
2023/06/07 12:05:50;;;;;;;5.83;2.17;;;;;;;;;;5010688;28;20184;-68
2023/06/07 12:08:17;;;;;;;2.97;2.23;;;;;;;;;;5028183;28;20242;-68
2023/06/07 12:10:52;;;;;;;3.03;2.43;;;;;;;;;;5028516;28;20212;-68
2023/06/07 12:13:19;;;;;;;3.10;2.40;;;;;;;;;;5028092;28;20271;-68
2023/06/07 12:15:46;;;;;;;4.70;2.63;;;;;;;;;;5030233;28;20203;-68
2023/06/07 12:18:14;;;;;;;3.87;2.30;;;;;;;;;;5031496;28;20220;-68
2023/06/07 12:20:43;;;;;;;6.80;2.60;;;;;;;;;;5013567;28;20191;-68
2023/06/07 12:23:14;;;;;;;3.97;2.30;;;;;;;;;;5013509;28;20692;-68
2023/06/07 12:25:41;;;;;;;3.03;2.50;;;;;;;;;;5031786;28;20270;-67
2023/06/07 12:28:09;;;;;;;3.30;2.53;;;;;;;;;;5013741;28;20195;-67
2023/06/07 12:30:37;;;;;;;3.13;2.03;;;;;;;;;;5031525;28;20601;-68
2023/06/07 12:33:04;;;;;;;4.23;2.50;;;;;;;;;;5031538;28;20177;-68
2023/06/07 12:35:34;;;;;;;3.23;2.57;;;;;;;;;;5013924;28;20184;-68
2023/06/07 12:38:01;;;;;;;6.77;2.87;;;;;;;;;;5013844;28;20770;-68
2023/06/07 12:40:45;;;;;;;3.60;2.30;;;;;;;;;;5031798;28;20217;-69
2023/06/07 12:43:13;;;;;;;4.13;2.50;;;;;;;;;;5028903;28;20193;-69
2023/06/07 12:45:58;;;;;;;3.20;2.37;;;;;;;;;;5032092;28;20172;-69
2023/06/07 12:48:25;;;;;;;4.53;2.37;;;;;;;;;;5032689;28;20311;-69
2023/06/07 12:51:09;;;;;;;3.77;2.40;;;;;;;;;;5032550;28;20175;-69
2023/06/07 12:53:36;;;;;;;2.90;2.37;;;;;;;;;;5015247;28;20211;-68
2023/06/07 12:56:21;;;;;;;3.83;2.50;;;;;;;;;;5032267;28;20206;-69
2023/06/07 12:58:47;;;;;;;2.80;2.17;;;;;;;;;;5014533;28;20197;-69
2023/06/07 13:01:31;;;;;;;4.30;2.60;;;;;;;;;;5031855;28;20199;-69
2023/06/07 13:03:58;;;;;;;3.33;2.53;;;;;;;;;;5032661;28;20191;-68
2023/06/07 13:06:28;;;;;;;4.67;2.43;;;;;;;;;;4998849;28;20271;-69
2023/06/07 13:09:00;;;;;;;4.37;2.33;;;;;;;;;;5015607;28;20274;-68
2023/06/07 13:11:27;;;;;;;2.70;2.40;;;;;;;;;;5014624;28;20216;-69
2023/06/07 13:13:54;;;;;;;3.97;2.50;;;;;;;;;;5014400;28;20205;-69
2023/06/07 13:16:20;;;;;;;6.37;2.37;;;;;;;;;;5031927;28;20645;-68
2023/06/07 13:18:47;;;;;;;4.83;2.57;;;;;;;;;;5032937;28;20280;-69
2023/06/07 13:21:14;;;;;;;4.27;2.60;;;;;;;;;;5032278;28;20595;-68
2023/06/07 13:23:41;;;;;;;2.83;2.20;;;;;;;;;;5014866;28;20215;-69
2023/06/07 13:26:08;;;;;;;3.20;2.50;;;;;;;;;;5030642;28;20194;-69
2023/06/07 13:28:35;;;;;;;3.97;2.60;;;;;;;;;;5031619;28;20245;-68
2023/06/07 13:31:03;;;;;;;5.63;2.57;;;;;;;;;;5031253;28;20212;-69
2023/06/07 13:33:29;;;;;;;4.70;2.67;;;;;;;;;;5031845;28;20187;-69
2023/06/07 13:35:56;;;;;;;3.97;2.50;;;;;;;;;;5013417;28;20203;-70
2023/06/07 13:38:23;;;;;;;3.90;2.10;;;;;;;;;;5031748;28;20926;-69
2023/06/07 13:40:50;;;;;;;4.17;2.87;;;;;;;;;;5031709;28;20319;-70
2023/06/07 13:43:17;;;;;;;3.10;2.40;;;;;;;;;;5031766;28;20190;-69
2023/06/07 13:45:45;;;;;;;5.83;2.70;;;;;;;;;;5030994;28;20578;-69
2023/06/07 13:48:13;;;;;;;3.87;2.70;;;;;;;;;;5031294;28;20618;-70
2023/06/07 13:50:42;;;;;;;3.97;2.40;;;;;;;;;;5030806;28;20193;-70
2023/06/07 13:53:09;;;;;;;4.83;2.30;;;;;;;;;;5031643;28;20755;-70
2023/06/07 13:55:53;;;;;;;5.03;2.83;;;;;;;;;;5013672;28;20714;-69
2023/06/07 13:58:20;;;;;;;4.60;2.80;;;;;;;;;;5013582;28;20203;-68
2023/06/07 14:00:47;;;;;;;4.30;2.47;;;;;;;;;;5031627;28;20284;-69
2023/06/07 14:03:14;;;;;;;5.20;2.73;;;;;;;;;;5030918;28;20224;-69
2023/06/07 14:05:41;;;;;;;7.40;2.77;;;;;;;;;;5013881;28;20204;-69
2023/06/07 14:08:25;;;;;;;2.47;2.20;;;;;;;;;;5031429;28;20186;-69
2023/06/07 14:10:52;;;;;;;2.77;2.30;;;;;;;;;;5013977;28;20183;-68
2023/06/07 14:13:19;;;;;;;4.73;2.40;;;;;;;;;;5014238;28;20188;-68
2023/06/07 14:15:47;;;;;;;4.23;2.10;;;;;;;;;;5013529;28;20199;-68
2023/06/07 14:18:14;;;;;;;4.20;2.40;;;;;;;;;;5013268;28;20243;-69
2023/06/07 14:20:59;;;;;;;3.93;2.30;;;;;;;;;;4995913;28;20650;-69
2023/06/07 14:23:26;;;;;;;4.67;2.40;;;;;;;;;;5013221;28;20188;-69
2023/06/07 14:25:52;;;;;;;3.73;2.47;;;;;;;;;;5030869;28;20593;-70
2023/06/07 14:28:19;;;;;;;4.67;2.60;;;;;;;;;;5030565;28;20196;-69
2023/06/07 14:30:46;;;;;;;3.87;2.50;;;;;;;;;;5031079;28;20192;-68
2023/06/07 14:33:13;;;;;;;4.37;2.70;;;;;;;;;;5030637;28;20210;-68
2023/06/07 14:35:40;;;;;;;3.50;2.40;;;;;;;;;;5030401;28;20483;-68
2023/06/07 14:38:07;;;;;;;4.53;2.57;;;;;;;;;;5029977;28;20250;-69
2023/06/07 14:40:33;;;;;;;3.60;2.63;;;;;;;;;;5030335;28;20242;-69
2023/06/07 14:43:00;;;;;;;2.87;2.30;;;;;;;;;;5030876;28;20587;-69
2023/06/07 14:45:27;;;;;;;3.60;2.27;;;;;;;;;;5031123;28;20203;-69
2023/06/07 14:48:11;;;;;;;3.03;2.50;;;;;;;;;;5012945;28;20182;-69
2023/06/07 14:50:38;;;;;;;4.57;2.33;;;;;;;;;;5030634;28;20201;-69
2023/06/07 14:53:05;;;;;;;5.27;3.00;;;;;;;;;;5030297;28;20192;-69
2023/06/07 14:55:31;;;;;;;2.83;2.23;;;;;;;;;;5012650;28;20219;-68
2023/06/07 14:58:00;;;;;;;6.40;2.57;;;;;;;;;;5012991;28;20238;-68
2023/06/07 15:00:30;;;;;;;6.13;2.60;;;;;;;;;;5030564;28;20199;-69
2023/06/07 15:02:57;;;;;;;6.30;2.33;;;;;;;;;;5013674;28;20184;-69
2023/06/07 15:05:24;;;;;;;3.67;2.10;;;;;;;;;;5030346;28;20192;-68
2023/06/07 15:07:51;;;;;;;3.80;2.37;;;;;;;;;;5030227;28;20744;-69
2023/06/07 15:10:20;;;;;;;6.27;2.40;;;;;;;;;;5029949;28;20195;-68
2023/06/07 15:12:47;;;;;;;4.00;2.40;;;;;;;;;;5029782;28;20252;-69
2023/06/07 15:15:17;;;;;;;3.87;2.27;;;;;;;;;;5029906;28;20237;-69
2023/06/07 15:17:44;;;;;;;4.77;2.77;;;;;;;;;;5012550;28;20282;-69
2023/06/07 15:20:15;;;;;;;3.57;2.13;;;;;;;;;;5013379;28;20217;-69
2023/06/07 15:22:42;;;;;;;5.20;2.47;;;;;;;;;;5030544;28;20245;-69
2023/06/07 15:25:09;;;;;;;3.07;2.30;;;;;;;;;;5012304;28;20202;-68
2023/06/07 15:27:36;;;;;;;3.13;2.10;;;;;;;;;;5029747;28;20198;-69